createdAt,value
2019-05-02T00:00:59.952Z,111.30
2019-05-02T00:01:59.817Z,109.20
2019-05-02T00:02:59.944Z,113.20
2019-05-02T00:03:59.794Z,98.40
2019-05-02T00:04:59.794Z,106.00
2019-05-02T00:06:03.029Z,113.10
2019-05-02T00:07:00.764Z,106.90
2019-05-02T00:07:59.752Z,104.90
2019-05-02T00:09:03.923Z,111.30
2019-05-02T00:10:00.734Z,105.50
2019-05-02T00:10:59.763Z,106.80
2019-05-02T00:11:59.731Z,108.90
2019-05-02T00:12:59.703Z,111.40
2019-05-02T00:13:59.689Z,101.70
2019-05-02T00:15:01.827Z,108.80
2019-05-02T00:15:59.669Z,103.60
2019-05-02T00:16:59.679Z,91.70
2019-05-02T00:18:01.474Z,101.00
2019-05-02T00:18:59.637Z,100.50
2019-05-02T00:19:59.629Z,95.60
2019-05-02T00:21:01.413Z,98.60
2019-05-02T00:21:59.626Z,99.10
2019-05-02T00:22:59.595Z,90.20
2019-05-02T00:24:02.968Z,87.10
2019-05-02T00:24:59.575Z,96.60
2019-05-02T00:25:59.562Z,90.50
2019-05-02T00:27:01.353Z,93.20
2019-05-02T00:27:59.545Z,91.40
2019-05-02T00:28:59.532Z,105.10
2019-05-02T00:30:00.407Z,96.90
2019-05-02T00:30:59.511Z,101.30
2019-05-02T00:31:59.519Z,99.40
2019-05-02T00:32:59.624Z,97.90
2019-05-02T00:33:59.480Z,95.10
2019-05-02T00:34:59.471Z,95.10
2019-05-02T00:35:59.475Z,102.20
2019-05-02T00:36:59.468Z,113.00
2019-05-02T00:38:02.528Z,99.00
2019-05-02T00:38:59.427Z,105.00
2019-05-02T00:39:59.416Z,102.50
2019-05-02T00:41:02.163Z,102.90
2019-05-02T00:42:12.059Z,104.60
2019-05-02T00:43:00.384Z,95.70
2019-05-02T00:43:59.374Z,102.10
2019-05-02T00:44:59.372Z,98.50
2019-05-02T00:45:59.743Z,107.30
2019-05-02T00:46:59.362Z,102.90
2019-05-02T00:47:59.331Z,105.10
2019-05-02T00:48:59.969Z,99.40
2019-05-02T00:49:59.314Z,106.70
2019-05-02T00:50:59.304Z,105.50
2019-05-02T00:52:01.368Z,100.70
2019-05-02T00:52:59.278Z,99.90
2019-05-02T00:53:59.276Z,92.30
2019-05-02T00:54:59.884Z,89.50
2019-05-02T00:55:59.248Z,90.80
2019-05-02T00:56:59.256Z,93.60
2019-05-02T00:57:59.225Z,88.90
2019-05-02T00:59:02.404Z,96.00
2019-05-02T01:00:00.207Z,87.00
2019-05-02T01:00:59.195Z,92.40
2019-05-02T01:02:00.084Z,92.10
2019-05-02T01:03:00.182Z,95.60
2019-05-02T01:03:59.163Z,89.30
2019-05-02T01:05:03.152Z,90.40
2019-05-02T01:05:59.143Z,85.80
2019-05-02T01:06:59.151Z,79.00
2019-05-02T01:08:01.119Z,89.70
2019-05-02T01:08:59.110Z,86.70
2019-05-02T01:09:59.102Z,90.90
2019-05-02T01:10:59.089Z,92.60
2019-05-02T01:12:03.079Z,91.60
2019-05-02T01:13:00.067Z,90.30
2019-05-02T01:13:59.060Z,87.60
2019-05-02T01:15:03.228Z,90.80
2019-05-02T01:16:00.033Z,95.60
2019-05-02T01:16:59.049Z,98.00
2019-05-02T01:18:01.045Z,93.30
2019-05-02T01:19:00.005Z,103.40
2019-05-02T01:19:58.996Z,102.60
2019-05-02T01:21:02.827Z,105.50
2019-05-02T01:21:59.998Z,108.00
2019-05-02T01:22:58.964Z,100.40
2019-05-02T01:24:02.992Z,122.20
2019-05-02T01:24:58.941Z,106.80
2019-05-02T01:25:58.930Z,111.60
2019-05-02T01:26:59.918Z,99.00
2019-05-02T01:27:59.959Z,124.00
2019-05-02T01:28:58.899Z,114.30
2019-05-02T01:30:01.416Z,118.90
2019-05-02T01:30:59.880Z,110.90
2019-05-02T01:31:58.868Z,112.50
2019-05-02T01:33:01.267Z,113.50
2019-05-02T01:33:59.848Z,113.50
2019-05-02T01:34:58.837Z,120.30
2019-05-02T01:36:01.757Z,127.10
2019-05-02T01:36:59.815Z,124.40
2019-05-02T01:37:58.822Z,120.60
2019-05-02T01:39:03.043Z,123.90
2019-05-02T01:39:59.782Z,119.30
2019-05-02T01:40:58.772Z,119.50
2019-05-02T01:41:59.977Z,127.20
2019-05-02T01:42:59.775Z,122.70
2019-05-02T01:44:00.145Z,113.60
2019-05-02T01:44:58.733Z,117.60
2019-05-02T01:45:58.722Z,114.70
2019-05-02T01:46:59.968Z,114.60
2019-05-02T01:47:58.705Z,120.60
2019-05-02T01:48:58.713Z,107.30
2019-05-02T01:49:59.177Z,110.70
2019-05-02T01:50:58.667Z,109.00
2019-05-02T01:51:58.658Z,105.00
2019-05-02T01:53:00.169Z,114.80
2019-05-02T01:54:00.178Z,106.80
2019-05-02T01:54:58.629Z,103.40
2019-05-02T01:55:59.399Z,112.60
2019-05-02T01:56:58.610Z,117.00
2019-05-02T01:57:58.594Z,114.80
2019-05-02T01:58:58.958Z,111.80
2019-05-02T01:59:58.576Z,106.10
2019-05-02T02:00:58.565Z,116.00
2019-05-02T02:01:59.181Z,116.80
2019-05-02T02:02:58.544Z,116.70
2019-05-02T02:04:00.179Z,108.30
2019-05-02T02:04:58.522Z,112.10
2019-05-02T02:05:58.549Z,111.30
2019-05-02T02:06:58.499Z,99.60
2019-05-02T02:07:58.492Z,103.80
2019-05-02T02:08:58.506Z,106.00
2019-05-02T02:09:58.469Z,104.80
2019-05-02T02:10:58.458Z,114.20
2019-05-02T02:11:58.448Z,108.40
2019-05-02T02:13:04.858Z,111.30
2019-05-02T02:14:01.180Z,115.00
2019-05-02T02:14:58.422Z,108.40
2019-05-02T02:16:00.197Z,106.60
2019-05-02T02:16:59.393Z,118.10
2019-05-02T02:17:58.384Z,113.20
2019-05-02T02:18:59.103Z,126.70
2019-05-02T02:19:59.381Z,101.80
2019-05-02T02:20:58.353Z,103.60
2019-05-02T02:22:02.783Z,106.00
2019-05-02T02:22:59.332Z,107.70
2019-05-02T02:23:58.325Z,121.40
2019-05-02T02:25:00.979Z,124.50
2019-05-02T02:25:58.307Z,109.40
2019-05-02T02:26:58.296Z,97.80
2019-05-02T02:27:59.714Z,120.10
2019-05-02T02:28:58.268Z,117.80
2019-05-02T02:29:58.284Z,133.00
2019-05-02T02:31:04.949Z,126.50
2019-05-02T02:31:59.246Z,118.10
2019-05-02T02:33:00.911Z,128.80
2019-05-02T02:33:59.218Z,106.90
2019-05-02T02:35:03.452Z,111.30
2019-05-02T02:35:59.205Z,121.80
2019-05-02T02:36:58.187Z,125.30
2019-05-02T02:37:58.180Z,111.40
2019-05-02T02:38:58.163Z,124.10
2019-05-02T02:39:58.177Z,119.30
2019-05-02T02:40:58.143Z,133.60
2019-05-02T02:41:58.135Z,121.60
2019-05-02T02:42:58.125Z,117.00
2019-05-02T02:44:00.546Z,130.60
2019-05-02T02:44:58.130Z,125.60
2019-05-02T02:45:59.795Z,122.40
2019-05-02T02:46:58.083Z,116.40
2019-05-02T02:47:59.948Z,124.40
2019-05-02T02:48:58.060Z,116.40
2019-05-02T02:50:02.327Z,118.70
2019-05-02T02:50:59.039Z,130.80
2019-05-02T02:52:04.203Z,119.90
2019-05-02T02:52:59.017Z,118.90
2019-05-02T02:54:03.860Z,120.00
2019-05-02T02:54:59.728Z,124.80
2019-05-02T02:56:01.654Z,115.60
2019-05-02T02:56:58.975Z,107.60
2019-05-02T02:57:58.580Z,118.50
2019-05-02T02:58:58.954Z,127.70
2019-05-02T03:00:06.302Z,120.90
2019-05-02T03:00:58.966Z,106.30
2019-05-02T03:02:09.278Z,119.40
2019-05-02T03:02:58.913Z,122.40
2019-05-02T03:04:01.781Z,107.40
2019-05-02T03:04:58.891Z,97.30
2019-05-02T03:05:58.582Z,99.00
2019-05-02T03:06:58.871Z,108.30
2019-05-02T03:07:59.456Z,112.00
2019-05-02T03:08:58.854Z,101.90
2019-05-02T03:09:59.646Z,111.90
2019-05-02T03:10:58.850Z,112.10
2019-05-02T03:12:02.220Z,100.20
2019-05-02T03:12:58.806Z,95.40
2019-05-02T03:14:05.559Z,116.40
2019-05-02T03:14:58.786Z,113.00
2019-05-02T03:16:00.281Z,114.00
2019-05-02T03:16:58.782Z,103.90
2019-05-02T03:17:59.944Z,107.40
2019-05-02T03:18:57.746Z,90.40
2019-05-02T03:20:01.162Z,79.00
2019-05-02T03:20:58.723Z,102.10
2019-05-02T03:22:03.443Z,103.10
2019-05-02T03:22:58.700Z,111.90
2019-05-02T03:24:03.055Z,104.60
2019-05-02T03:24:58.681Z,106.10
2019-05-02T03:25:57.671Z,80.90
2019-05-02T03:26:58.355Z,115.70
2019-05-02T03:27:57.652Z,113.50
2019-05-02T03:29:00.280Z,103.90
2019-05-02T03:29:57.634Z,102.20
2019-05-02T03:30:57.619Z,96.10
2019-05-02T03:32:14.187Z,113.30
2019-05-02T03:33:05.994Z,104.00
2019-05-02T03:34:00.647Z,103.20
2019-05-02T03:34:57.580Z,93.30
2019-05-02T03:35:57.568Z,79.10
2019-05-02T03:37:03.155Z,92.50
2019-05-02T03:37:58.563Z,109.20
2019-05-02T03:38:57.534Z,95.20
2019-05-02T03:40:00.276Z,114.70
2019-05-02T03:40:57.512Z,96.20
2019-05-02T03:42:02.855Z,106.60
2019-05-02T03:42:58.544Z,101.20
2019-05-02T03:44:10.645Z,109.60
2019-05-02T03:45:04.450Z,110.90
2019-05-02T03:45:58.470Z,103.50
2019-05-02T03:47:02.176Z,100.70
2019-05-02T03:47:58.469Z,104.40
2019-05-02T03:49:06.070Z,118.20
2019-05-02T03:49:58.417Z,94.90
2019-05-02T03:50:57.411Z,107.80
2019-05-02T03:52:03.022Z,106.10
2019-05-02T03:52:58.412Z,103.60
2019-05-02T03:54:06.435Z,116.30
2019-05-02T03:54:58.400Z,92.80
2019-05-02T03:55:57.369Z,111.40
2019-05-02T03:56:57.348Z,104.00
2019-05-02T03:57:57.355Z,116.40
2019-05-02T03:58:58.289Z,118.70
2019-05-02T03:59:57.317Z,122.30
2019-05-02T04:01:01.760Z,106.20
2019-05-02T04:01:58.292Z,115.50
2019-05-02T04:03:00.475Z,119.90
2019-05-02T04:03:58.271Z,122.40
2019-05-02T04:05:01.055Z,120.40
2019-05-02T04:05:58.249Z,108.30
2019-05-02T04:07:01.189Z,118.50
2019-05-02T04:07:57.230Z,116.40
2019-05-02T04:09:00.125Z,99.60
2019-05-02T04:09:57.221Z,86.60
2019-05-02T04:10:59.378Z,121.90
2019-05-02T04:11:57.184Z,134.40
2019-05-02T04:12:58.416Z,118.50
2019-05-02T04:13:57.197Z,116.10
2019-05-02T04:14:57.455Z,119.70
2019-05-02T04:15:57.145Z,116.30
2019-05-02T04:16:57.337Z,106.90
2019-05-02T04:17:57.123Z,98.40
2019-05-02T04:18:58.169Z,91.50
2019-05-02T04:19:57.099Z,119.70
2019-05-02T04:20:57.092Z,109.20
2019-05-02T04:22:01.468Z,100.40
2019-05-02T04:22:58.080Z,94.30
2019-05-02T04:24:07.788Z,99.70
2019-05-02T04:24:58.051Z,118.30
2019-05-02T04:25:57.037Z,89.10
2019-05-02T04:26:57.028Z,120.80
2019-05-02T04:27:57.031Z,128.60
2019-05-02T04:28:57.030Z,119.10
2019-05-02T04:29:56.998Z,126.80
2019-05-02T04:30:56.989Z,136.70
2019-05-02T04:31:56.987Z,143.80
2019-05-02T04:32:57.871Z,137.90
2019-05-02T04:33:56.959Z,104.30
2019-05-02T04:34:57.966Z,130.60
2019-05-02T04:35:59.379Z,126.50
2019-05-02T04:37:00.970Z,119.40
2019-05-02T04:38:01.433Z,137.90
2019-05-02T04:38:59.541Z,127.50
2019-05-02T04:40:00.717Z,134.40
2019-05-02T04:40:59.197Z,131.30
2019-05-02T04:41:58.593Z,133.50
2019-05-02T04:43:01.936Z,138.10
2019-05-02T04:44:01.295Z,104.70
2019-05-02T04:45:13.759Z,145.10
2019-05-02T04:46:00.062Z,125.00
2019-05-02T04:47:02.740Z,111.80
2019-05-02T04:48:03.169Z,117.50
2019-05-02T04:48:58.906Z,117.90
2019-05-02T04:49:58.571Z,139.10
2019-05-02T04:50:59.427Z,141.50
2019-05-02T04:52:05.947Z,132.10
2019-05-02T04:52:59.241Z,134.20
2019-05-02T04:53:58.844Z,135.60
2019-05-02T04:55:12.062Z,140.80
2019-05-02T04:56:04.346Z,129.70
2019-05-02T04:57:01.830Z,138.10
2019-05-02T04:57:58.768Z,121.00
2019-05-02T04:59:01.367Z,123.90
2019-05-02T05:00:05.930Z,117.40
2019-05-02T05:01:01.549Z,141.40
2019-05-02T05:01:58.425Z,118.80
2019-05-02T05:02:58.007Z,114.20
2019-05-02T05:04:02.518Z,139.80
2019-05-02T05:04:58.221Z,140.90
2019-05-02T05:06:01.543Z,134.40
2019-05-02T05:07:00.955Z,127.50
2019-05-02T05:07:58.567Z,129.00
2019-05-02T05:08:58.451Z,120.40
2019-05-02T05:10:02.857Z,112.00
2019-05-02T05:10:57.589Z,138.80
2019-05-02T05:11:59.082Z,129.10
2019-05-02T05:12:57.565Z,104.40
2019-05-02T05:13:57.467Z,116.90
2019-05-02T05:14:57.850Z,107.40
2019-05-02T05:15:57.385Z,131.10
2019-05-02T05:16:57.985Z,126.30
2019-05-02T05:17:58.208Z,123.70
2019-05-02T05:18:57.859Z,118.70
2019-05-02T05:19:57.696Z,123.30
2019-05-02T05:20:57.744Z,102.20
2019-05-02T05:22:04.438Z,132.00
2019-05-02T05:22:58.142Z,119.40
2019-05-02T05:24:00.976Z,120.60
2019-05-02T05:24:58.250Z,114.00
2019-05-02T05:26:03.449Z,100.10
2019-05-02T05:26:57.856Z,106.90
2019-05-02T05:27:58.691Z,112.40
2019-05-02T05:28:58.355Z,113.50
2019-05-02T05:29:59.507Z,117.00
2019-05-02T05:30:58.346Z,131.80
2019-05-02T05:32:05.270Z,129.20
2019-05-02T05:32:58.330Z,108.80
2019-05-02T05:33:57.878Z,107.90
2019-05-02T05:34:57.939Z,99.00
2019-05-02T05:35:57.824Z,111.60
2019-05-02T05:36:58.322Z,131.10
2019-05-02T05:37:57.330Z,111.60
2019-05-02T05:38:58.277Z,143.90
2019-05-02T05:39:57.989Z,142.20
2019-05-02T05:40:58.044Z,128.80
2019-05-02T05:41:57.838Z,97.20
2019-05-02T05:42:57.335Z,130.60
2019-05-02T05:43:57.339Z,132.80
2019-05-02T05:44:58.220Z,100.50
2019-05-02T05:46:08.502Z,141.70
2019-05-02T05:46:58.140Z,137.40
2019-05-02T05:47:57.492Z,120.40
2019-05-02T05:48:58.336Z,137.20
2019-05-02T05:49:57.648Z,110.10
2019-05-02T05:50:57.957Z,129.10
2019-05-02T05:52:02.039Z,116.60
2019-05-02T05:52:59.355Z,118.30
2019-05-02T05:53:58.956Z,117.20
2019-05-02T05:54:57.924Z,89.80
2019-05-02T05:55:58.953Z,120.10
2019-05-02T05:56:57.299Z,91.70
2019-05-02T05:58:01.784Z,99.10
2019-05-02T05:58:59.146Z,105.70
2019-05-02T05:59:58.258Z,99.20
2019-05-02T06:00:58.358Z,118.30
2019-05-02T06:01:57.997Z,112.90
2019-05-02T06:03:06.194Z,114.00
2019-05-02T06:03:58.113Z,104.10
2019-05-02T06:05:02.549Z,94.80
2019-05-02T06:05:57.988Z,123.20
2019-05-02T06:07:01.642Z,112.00
2019-05-02T06:07:57.541Z,113.90
2019-05-02T06:08:55.951Z,122.00
2019-05-02T06:09:55.947Z,114.90
2019-05-02T06:10:55.929Z,100.00
2019-05-02T06:11:56.666Z,105.10
2019-05-02T06:12:55.907Z,123.70
2019-05-02T06:13:55.925Z,118.10
2019-05-02T06:14:56.250Z,116.00
2019-05-02T06:16:02.831Z,121.30
2019-05-02T06:16:56.864Z,121.60
2019-05-02T06:17:59.946Z,105.10
2019-05-02T06:18:56.935Z,103.40
2019-05-02T06:19:55.833Z,116.90
2019-05-02T06:20:58.343Z,105.20
2019-05-02T06:21:55.813Z,104.40
2019-05-02T06:23:00.020Z,104.10
2019-05-02T06:23:56.810Z,110.50
2019-05-02T06:24:55.780Z,113.40
2019-05-02T06:25:55.773Z,106.50
2019-05-02T06:26:55.758Z,117.30
2019-05-02T06:28:00.159Z,126.10
2019-05-02T06:28:56.758Z,122.90
2019-05-02T06:29:56.085Z,128.80
2019-05-02T06:30:55.716Z,124.40
2019-05-02T06:31:55.707Z,107.30
2019-05-02T06:32:56.652Z,115.70
2019-05-02T06:33:55.707Z,121.50
2019-05-02T06:34:55.704Z,127.30
2019-05-02T06:36:01.002Z,121.70
2019-05-02T06:36:56.657Z,109.80
2019-05-02T06:37:55.644Z,134.00
2019-05-02T06:38:56.682Z,128.30
2019-05-02T06:39:55.632Z,127.40
2019-05-02T06:40:55.619Z,132.70
2019-05-02T06:41:57.530Z,111.00
2019-05-02T06:42:55.589Z,111.60
2019-05-02T06:43:55.580Z,108.70
2019-05-02T06:44:59.787Z,117.40
2019-05-02T06:45:56.561Z,112.10
2019-05-02T06:46:59.281Z,112.40
2019-05-02T06:47:56.538Z,117.20
2019-05-02T06:48:55.549Z,117.10
2019-05-02T06:49:56.122Z,117.80
2019-05-02T06:50:56.504Z,123.30
2019-05-02T06:51:56.305Z,107.60
2019-05-02T06:52:55.485Z,100.10
2019-05-02T06:53:55.477Z,111.20
2019-05-02T06:54:57.922Z,110.80
2019-05-02T06:55:55.457Z,116.80
2019-05-02T06:56:55.441Z,120.30
2019-05-02T06:57:57.125Z,125.00
2019-05-02T06:58:56.422Z,106.30
2019-05-02T06:59:56.531Z,102.60
2019-05-02T07:00:58.087Z,109.20
2019-05-02T07:01:57.507Z,117.50
2019-05-02T07:02:55.378Z,107.10
2019-05-02T07:03:55.367Z,114.60
2019-05-02T07:04:56.067Z,113.00
2019-05-02T07:05:58.892Z,98.20
2019-05-02T07:06:59.090Z,98.70
2019-05-02T07:07:55.507Z,107.30
2019-05-02T07:08:55.408Z,112.90
2019-05-02T07:09:55.316Z,102.30
2019-05-02T07:10:56.048Z,100.20
2019-05-02T07:11:58.560Z,96.40
2019-05-02T07:13:09.847Z,98.50
2019-05-02T07:13:56.261Z,91.10
2019-05-02T07:14:55.981Z,97.80
2019-05-02T07:15:56.263Z,96.20
2019-05-02T07:16:56.479Z,92.60
2019-05-02T07:17:55.218Z,100.00
2019-05-02T07:18:55.208Z,108.70
2019-05-02T07:19:58.905Z,112.10
2019-05-02T07:20:56.207Z,92.80
2019-05-02T07:21:58.516Z,112.80
2019-05-02T07:22:56.167Z,111.10
2019-05-02T07:23:55.341Z,98.90
2019-05-02T07:24:55.153Z,99.90
2019-05-02T07:25:55.152Z,102.30
2019-05-02T07:26:56.817Z,99.50
2019-05-02T07:27:55.116Z,108.80
2019-05-02T07:28:55.106Z,99.50
2019-05-02T07:29:57.689Z,94.20
2019-05-02T07:30:55.101Z,104.30
2019-05-02T07:31:55.070Z,102.60
2019-05-02T07:32:56.285Z,112.60
2019-05-02T07:33:56.057Z,112.40
2019-05-02T07:34:55.040Z,96.30
2019-05-02T07:35:59.665Z,111.90
2019-05-02T07:36:56.015Z,107.80
2019-05-02T07:37:55.011Z,103.60
2019-05-02T07:38:57.579Z,95.70
2019-05-02T07:39:55.984Z,95.90
2019-05-02T07:40:54.978Z,97.80
2019-05-02T07:41:54.986Z,91.30
2019-05-02T07:42:54.960Z,102.30
2019-05-02T07:43:56.335Z,102.90
2019-05-02T07:44:54.935Z,96.80
2019-05-02T07:45:54.924Z,102.10
2019-05-02T07:46:56.875Z,106.30
2019-05-02T07:47:55.899Z,99.30
2019-05-02T07:48:56.571Z,89.20
2019-05-02T07:49:54.882Z,103.10
2019-05-02T07:50:55.369Z,98.20
2019-05-02T07:51:57.609Z,101.80
2019-05-02T07:52:54.848Z,96.30
2019-05-02T07:53:55.743Z,86.10
2019-05-02T07:54:56.231Z,84.20
2019-05-02T07:55:55.816Z,86.00
2019-05-02T07:56:54.830Z,94.80
2019-05-02T07:57:54.793Z,88.20
2019-05-02T07:58:54.789Z,84.70
2019-05-02T07:59:59.947Z,85.60
2019-05-02T08:00:55.770Z,83.90
2019-05-02T08:01:54.752Z,88.70
2019-05-02T08:02:57.939Z,83.70
2019-05-02T08:03:54.733Z,87.00
2019-05-02T08:04:54.730Z,91.10
2019-05-02T08:05:58.561Z,84.20
2019-05-02T08:06:55.698Z,85.70
2019-05-02T08:07:55.298Z,88.90
2019-05-02T08:08:54.688Z,84.30
2019-05-02T08:09:54.667Z,83.90
2019-05-02T08:11:01.365Z,83.50
2019-05-02T08:11:55.646Z,88.80
2019-05-02T08:12:54.656Z,92.10
2019-05-02T08:13:55.644Z,80.60
2019-05-02T08:14:54.619Z,94.40
2019-05-02T08:15:54.609Z,85.20
2019-05-02T08:17:04.909Z,81.70
2019-05-02T08:17:55.605Z,79.60
2019-05-02T08:18:54.570Z,74.40
2019-05-02T08:19:54.574Z,80.30
2019-05-02T08:20:56.109Z,82.40
2019-05-02T08:21:54.543Z,74.00
2019-05-02T08:22:54.553Z,77.60
2019-05-02T08:23:57.067Z,83.90
2019-05-02T08:24:55.508Z,80.40
2019-05-02T08:25:54.504Z,81.60
2019-05-02T08:26:58.376Z,79.50
2019-05-02T08:27:55.496Z,81.70
2019-05-02T08:28:54.464Z,82.20
2019-05-02T08:29:54.457Z,81.00
2019-05-02T08:30:54.452Z,79.90
2019-05-02T08:31:54.448Z,88.10
2019-05-02T08:32:54.445Z,80.50
2019-05-02T08:33:54.416Z,83.00
2019-05-02T08:34:54.434Z,81.60
2019-05-02T08:35:54.394Z,74.50
2019-05-02T08:36:58.822Z,79.70
2019-05-02T08:37:56.135Z,80.30
2019-05-02T08:38:55.486Z,79.40
2019-05-02T08:39:54.362Z,81.70
2019-05-02T08:40:54.338Z,81.60
2019-05-02T08:41:56.370Z,72.80
2019-05-02T08:42:54.339Z,73.20
2019-05-02T08:43:54.313Z,77.80
2019-05-02T08:44:56.290Z,74.50
2019-05-02T08:45:55.285Z,80.90
2019-05-02T08:46:54.277Z,84.80
2019-05-02T08:47:54.288Z,78.90
2019-05-02T08:48:54.287Z,80.20
2019-05-02T08:49:54.790Z,84.20
2019-05-02T08:50:54.235Z,82.80
2019-05-02T08:51:54.222Z,78.10
2019-05-02T08:52:54.281Z,78.90
2019-05-02T08:53:56.871Z,79.20
2019-05-02T08:54:54.186Z,75.50
2019-05-02T08:55:54.177Z,82.20
2019-05-02T08:56:58.716Z,75.80
2019-05-02T08:57:55.182Z,76.90
2019-05-02T08:58:54.148Z,77.50
2019-05-02T08:59:55.465Z,79.10
2019-05-02T09:00:55.123Z,78.40
2019-05-02T09:01:54.153Z,75.30
2019-05-02T09:02:56.987Z,75.50
2019-05-02T09:03:56.952Z,76.40
2019-05-02T09:04:58.890Z,77.60
2019-05-02T09:06:05.288Z,77.70
2019-05-02T09:06:58.722Z,77.50
2019-05-02T09:07:55.076Z,73.20
2019-05-02T09:08:54.057Z,75.00
2019-05-02T09:09:55.616Z,72.90
2019-05-02T09:10:54.021Z,73.80
2019-05-02T09:12:07.115Z,74.20
2019-05-02T09:12:54.996Z,78.60
2019-05-02T09:13:54.007Z,78.30
2019-05-02T09:14:53.976Z,76.20
2019-05-02T09:15:54.233Z,75.70
2019-05-02T09:16:53.955Z,75.50
2019-05-02T09:17:56.452Z,70.40
2019-05-02T09:18:54.405Z,70.00
2019-05-02T09:20:02.392Z,72.00
2019-05-02T09:20:56.569Z,74.40
2019-05-02T09:21:53.905Z,73.80
2019-05-02T09:22:55.983Z,75.30
2019-05-02T09:23:53.901Z,74.70
2019-05-02T09:24:53.869Z,72.10
2019-05-02T09:25:53.867Z,71.40
2019-05-02T09:26:53.857Z,73.80
2019-05-02T09:27:53.840Z,67.00
2019-05-02T09:28:56.325Z,67.80
2019-05-02T09:29:54.816Z,70.60
2019-05-02T09:30:57.309Z,69.60
2019-05-02T09:31:54.818Z,72.60
2019-05-02T09:32:57.302Z,74.60
2019-05-02T09:33:55.648Z,67.40
2019-05-02T09:34:56.633Z,69.90
2019-05-02T09:35:54.758Z,70.00
2019-05-02T09:36:53.742Z,71.90
2019-05-02T09:37:53.735Z,69.50
2019-05-02T09:38:57.448Z,76.00
2019-05-02T09:39:53.730Z,74.30
2019-05-02T09:40:56.143Z,67.50
2019-05-02T09:41:53.695Z,76.20
2019-05-02T09:43:00.042Z,74.00
2019-05-02T09:43:54.671Z,72.30
2019-05-02T09:44:56.875Z,78.70
2019-05-02T09:45:53.645Z,63.70
2019-05-02T09:46:56.954Z,67.10
2019-05-02T09:48:03.886Z,68.80
2019-05-02T09:48:57.048Z,62.60
2019-05-02T09:49:54.623Z,73.00
2019-05-02T09:50:53.594Z,76.60
2019-05-02T09:51:59.327Z,68.60
2019-05-02T09:52:54.571Z,72.10
2019-05-02T09:53:57.184Z,70.70
2019-05-02T09:54:54.572Z,69.60
2019-05-02T09:55:57.716Z,74.40
2019-05-02T09:56:53.529Z,72.90
2019-05-02T09:57:53.520Z,72.20
2019-05-02T09:58:55.072Z,76.70
2019-05-02T09:59:55.830Z,64.70
2019-05-02T10:00:53.493Z,76.70
2019-05-02T10:01:53.476Z,74.60
2019-05-02T10:02:53.476Z,76.30
2019-05-02T10:03:53.484Z,67.20
2019-05-02T10:04:53.471Z,69.10
2019-05-02T10:05:53.442Z,70.20
2019-05-02T10:06:53.422Z,66.90
2019-05-02T10:07:57.450Z,74.90
2019-05-02T10:08:54.413Z,74.60
2019-05-02T10:09:57.724Z,73.20
2019-05-02T10:10:54.388Z,73.60
2019-05-02T10:11:53.369Z,70.20
2019-05-02T10:12:53.359Z,74.60
2019-05-02T10:13:55.371Z,65.90
2019-05-02T10:14:53.358Z,70.40
2019-05-02T10:15:53.337Z,63.10
2019-05-02T10:16:57.411Z,70.80
2019-05-02T10:18:07.516Z,70.30
2019-05-02T10:18:54.295Z,71.90
2019-05-02T10:19:57.062Z,69.70
2019-05-02T10:20:53.277Z,72.60
2019-05-02T10:21:56.165Z,70.60
2019-05-02T10:22:53.268Z,67.50
2019-05-02T10:23:59.006Z,67.20
2019-05-02T10:24:54.255Z,69.30
2019-05-02T10:25:53.220Z,67.10
2019-05-02T10:26:55.318Z,65.90
2019-05-02T10:27:54.201Z,69.00
2019-05-02T10:28:53.544Z,70.40
2019-05-02T10:29:53.297Z,62.80
2019-05-02T10:30:56.638Z,71.10
2019-05-02T10:31:53.175Z,69.70
2019-05-02T10:32:57.262Z,71.60
2019-05-02T10:33:53.139Z,67.70
2019-05-02T10:34:56.823Z,73.70
2019-05-02T10:35:53.116Z,70.30
2019-05-02T10:36:58.735Z,74.00
2019-05-02T10:37:54.093Z,64.90
2019-05-02T10:38:54.980Z,69.30
2019-05-02T10:39:55.852Z,66.40
2019-05-02T10:40:54.733Z,69.20
2019-05-02T10:41:54.064Z,71.00
2019-05-02T10:42:53.044Z,71.00
2019-05-02T10:43:56.679Z,68.00
2019-05-02T10:44:54.043Z,60.10
2019-05-02T10:45:56.516Z,72.10
2019-05-02T10:46:52.999Z,65.90
2019-05-02T10:47:52.987Z,61.50
2019-05-02T10:48:52.981Z,67.50
2019-05-02T10:49:52.988Z,64.80
2019-05-02T10:50:52.956Z,59.00
2019-05-02T10:51:53.791Z,68.00
2019-05-02T10:52:52.934Z,62.60
2019-05-02T10:53:56.395Z,71.10
2019-05-02T10:54:53.052Z,65.00
2019-05-02T10:55:52.903Z,62.80
2019-05-02T10:56:52.891Z,67.70
2019-05-02T10:57:52.882Z,69.80
2019-05-02T10:58:52.880Z,73.40
2019-05-02T10:59:55.787Z,64.70
2019-05-02T11:00:52.849Z,67.80
2019-05-02T11:01:52.838Z,65.30
2019-05-02T11:02:52.832Z,69.20
2019-05-02T11:03:52.817Z,63.30
2019-05-02T11:04:52.830Z,55.80
2019-05-02T11:05:53.106Z,60.40
2019-05-02T11:06:56.635Z,65.80
2019-05-02T11:07:56.918Z,60.00
2019-05-02T11:08:53.763Z,62.50
2019-05-02T11:09:57.113Z,59.30
2019-05-02T11:10:53.744Z,56.40
2019-05-02T11:11:52.732Z,53.90
2019-05-02T11:12:56.012Z,59.90
2019-05-02T11:14:00.524Z,66.40
2019-05-02T11:14:53.717Z,67.90
2019-05-02T11:15:52.687Z,62.50
2019-05-02T11:16:52.678Z,63.10
2019-05-02T11:17:53.018Z,56.70
2019-05-02T11:18:52.745Z,59.20
2019-05-02T11:19:52.663Z,56.80
2019-05-02T11:20:52.637Z,62.30
2019-05-02T11:21:58.641Z,61.10
2019-05-02T11:22:54.602Z,50.30
2019-05-02T11:23:52.822Z,48.30
2019-05-02T11:24:52.617Z,56.20
2019-05-02T11:25:52.743Z,57.30
2019-05-02T11:26:52.940Z,59.50
2019-05-02T11:27:52.646Z,62.10
2019-05-02T11:28:52.547Z,61.40
2019-05-02T11:29:52.695Z,55.20
2019-05-02T11:30:52.615Z,60.40
2019-05-02T11:31:52.514Z,51.60
2019-05-02T11:32:52.505Z,58.70
2019-05-02T11:33:52.860Z,61.00
2019-05-02T11:34:52.559Z,59.50
2019-05-02T11:35:53.539Z,59.50
2019-05-02T11:36:52.817Z,59.30
2019-05-02T11:37:52.450Z,60.80
2019-05-02T11:39:00.257Z,60.80
2019-05-02T11:39:59.418Z,62.30
2019-05-02T11:40:53.437Z,61.50
2019-05-02T11:41:52.801Z,60.20
2019-05-02T11:42:52.401Z,61.70
2019-05-02T11:43:55.670Z,64.30
2019-05-02T11:44:52.446Z,61.20
2019-05-02T11:45:55.821Z,57.80
2019-05-02T11:46:53.353Z,55.80
2019-05-02T11:47:55.810Z,48.00
2019-05-02T11:48:56.428Z,48.90
2019-05-02T11:49:55.844Z,49.90
2019-05-02T11:50:52.475Z,47.70
2019-05-02T11:51:56.893Z,43.90
2019-05-02T11:52:52.479Z,46.80
2019-05-02T11:53:52.789Z,48.80
2019-05-02T11:54:52.269Z,50.30
2019-05-02T11:55:53.166Z,53.10
2019-05-02T11:56:53.550Z,58.10
2019-05-02T11:57:52.418Z,54.40
2019-05-02T11:58:52.813Z,48.00
2019-05-02T11:59:52.222Z,56.40
2019-05-02T12:00:52.465Z,53.10
2019-05-02T12:01:59.796Z,50.20
2019-05-02T12:02:56.690Z,44.80
2019-05-02T12:03:53.176Z,50.00
2019-05-02T12:04:55.456Z,43.00
2019-05-02T12:05:52.547Z,48.70
2019-05-02T12:07:01.012Z,47.00
2019-05-02T12:07:53.129Z,53.50
2019-05-02T12:08:52.661Z,52.00
2019-05-02T12:09:57.092Z,47.90
2019-05-02T12:10:53.115Z,44.20
2019-05-02T12:11:56.413Z,44.70
2019-05-02T12:12:52.696Z,43.80
2019-05-02T12:13:56.791Z,43.30
2019-05-02T12:14:53.053Z,46.70
2019-05-02T12:15:52.126Z,45.30
2019-05-02T12:16:52.722Z,43.50
2019-05-02T12:17:52.029Z,37.30
2019-05-02T12:18:53.829Z,36.80
2019-05-02T12:19:53.001Z,36.30
2019-05-02T12:20:52.249Z,42.80
2019-05-02T12:21:52.877Z,44.40
2019-05-02T12:22:52.812Z,43.90
2019-05-02T12:23:52.636Z,41.90
2019-05-02T12:24:52.041Z,44.90
2019-05-02T12:25:52.152Z,45.70
2019-05-02T12:26:52.871Z,43.00
2019-05-02T12:27:52.680Z,47.30
2019-05-02T12:28:52.705Z,43.30
2019-05-02T12:29:57.748Z,44.20
2019-05-02T12:30:52.882Z,47.20
2019-05-02T12:31:55.005Z,45.20
2019-05-02T12:32:53.112Z,39.40
2019-05-02T12:33:51.852Z,46.80
2019-05-02T12:34:52.618Z,46.00
2019-05-02T12:35:52.467Z,45.80
2019-05-02T12:36:52.422Z,45.20
2019-05-02T12:37:54.935Z,40.70
2019-05-02T12:38:52.779Z,42.10
2019-05-02T12:39:51.850Z,37.70
2019-05-02T12:40:52.099Z,41.20